Time;durP1;ratioP1;P1;durP2;ratioP2;P2;SDS_P1;SDS_P2;PMS_P1;PMS_P2;Temp;Humidity;BMP_temperature;BMP_pressure;BME280_temperature;BME280_humidity;BME280_pressure;Samples;Min_cycle;Max_cycle;Signal;HPM_P1;HPM_P2
2023/08/08 00:00:51;;;;;;;;;;;14.40;99.90;;;;;;5113137;28;19958;-68
2023/08/08 00:03:18;;;;;;;;;;;14.50;99.90;;;;;;5104607;28;19916;-68
2023/08/08 00:05:45;;;;;;;;;;;14.60;99.90;;;;;;5092594;28;19935;-70
2023/08/08 00:08:11;;;;;;;;;;;14.70;99.90;;;;;;5108741;28;20400;-69
2023/08/08 00:10:38;;;;;;;;;;;14.90;99.90;;;;;;5107072;28;19912;-69
2023/08/08 00:13:05;;;;;;;;;;;14.90;99.90;;;;;;5111343;28;19916;-69
2023/08/08 00:15:32;;;;;;;;;;;15.10;99.90;;;;;;5097570;28;20011;-72
2023/08/08 00:17:59;;;;;;;;;;;15.10;99.90;;;;;;5095515;28;19947;-69
2023/08/08 00:20:26;;;;;;;;;;;15.00;99.90;;;;;;5105833;28;19962;-71
2023/08/08 00:22:52;;;;;;;;;;;15.10;99.90;;;;;;5095315;28;20011;-71
2023/08/08 00:25:19;;;;;;;;;;;14.90;99.90;;;;;;5097317;28;19918;-72
2023/08/08 00:27:46;;;;;;;;;;;14.80;99.90;;;;;;5102986;28;19962;-70
2023/08/08 00:30:13;;;;;;;;;;;14.80;99.90;;;;;;5109422;28;20261;-71
2023/08/08 00:32:40;;;;;;;;;;;14.70;99.90;;;;;;5109534;28;19908;-71
2023/08/08 00:35:06;;;;;;;;;;;14.60;99.90;;;;;;5090769;28;19935;-71
2023/08/08 00:37:33;;;;;;;;;;;14.50;99.90;;;;;;5090864;28;19915;-72
2023/08/08 00:40:00;;;;;;;;;;;14.60;99.90;;;;;;5089921;28;19955;-72
2023/08/08 00:42:26;;;;;;;;;;;14.50;99.90;;;;;;5091627;28;19916;-73
2023/08/08 00:44:53;;;;;;;;;;;14.40;99.90;;;;;;5094073;28;19920;-73
2023/08/08 00:47:19;;;;;;;;;;;14.50;99.90;;;;;;5110689;28;19915;-74
2023/08/08 00:49:48;;;;;;;;;;;14.50;99.90;;;;;;5111045;28;20288;-72
2023/08/08 00:52:15;;;;;;;;;;;14.60;99.90;;;;;;5109577;28;19914;-73
2023/08/08 00:54:41;;;;;;;;;;;14.60;99.90;;;;;;5079899;28;19918;-73
2023/08/08 00:57:08;;;;;;;;;;;14.80;99.90;;;;;;5107464;28;19920;-71
2023/08/08 00:59:35;;;;;;;;;;;15.00;99.90;;;;;;5101160;28;19957;-71
2023/08/08 01:02:01;;;;;;;;;;;15.20;99.90;;;;;;5105198;28;20284;-71
2023/08/08 01:04:28;;;;;;;;;;;15.30;99.90;;;;;;5091423;28;20303;-71
2023/08/08 01:06:58;;;;;;;;;;;15.40;99.90;;;;;;5092169;28;19916;-74
2023/08/08 01:09:29;;;;;;;;;;;15.50;99.90;;;;;;5108324;28;19912;-71
2023/08/08 01:11:55;;;;;;;;;;;15.60;99.90;;;;;;5095867;28;20449;-74
2023/08/08 01:14:24;;;;;;;;;;;15.70;99.90;;;;;;5103310;28;19911;-75
2023/08/08 01:16:57;;;;;;;;;;;16.00;99.90;;;;;;5106347;28;19916;-68
2023/08/08 01:19:26;;;;;;;;;;;16.10;99.90;;;;;;5109395;28;19934;-74
2023/08/08 01:21:53;;;;;;;;;;;16.20;99.90;;;;;;5091506;28;19912;-71
2023/08/08 01:24:29;;;;;;;;;;;16.30;99.90;;;;;;5091039;28;19912;-70
2023/08/08 01:26:56;;;;;;;;;;;16.40;99.90;;;;;;5103456;28;19924;-71
2023/08/08 01:29:22;;;;;;;;;;;16.50;99.90;;;;;;5121247;28;20257;-73
2023/08/08 01:31:49;;;;;;;;;;;16.80;99.90;;;;;;5093567;28;19915;-73
2023/08/08 01:34:16;;;;;;;;;;;17.00;99.90;;;;;;5111266;28;19912;-74
2023/08/08 01:37:07;;;;;;;;;;;17.10;99.90;;;;;;5112399;28;19915;-70
2023/08/08 01:39:35;;;;;;;;;;;17.30;99.90;;;;;;5112185;28;19907;-73
2023/08/08 01:42:02;;;;;;;;;;;17.60;99.90;;;;;;5110649;28;19947;-73
2023/08/08 01:44:29;;;;;;;;;;;17.90;99.90;;;;;;5094209;28;19927;-73
2023/08/08 01:46:56;;;;;;;;;;;18.00;99.90;;;;;;5106617;28;19912;-70
2023/08/08 01:49:22;;;;;;;;;;;18.30;99.90;;;;;;5111468;28;20014;-70
2023/08/08 01:51:50;;;;;;;;;;;18.40;99.90;;;;;;5111937;28;19908;-70
2023/08/08 01:54:17;;;;;;;;;;;18.30;99.90;;;;;;5111365;28;20275;-70
2023/08/08 01:56:43;;;;;;;;;;;18.50;99.90;;;;;;5116457;28;20361;-72
2023/08/08 01:59:10;;;;;;;;;;;18.60;99.90;;;;;;5115722;28;19908;-70
2023/08/08 02:01:37;;;;;;;;;;;18.50;99.90;;;;;;5114569;28;20290;-70
2023/08/08 02:04:04;;;;;;;;;;;18.40;99.90;;;;;;5114722;28;19960;-73
2023/08/08 02:06:30;;;;;;;;;;;18.40;99.90;;;;;;5116010;28;19935;-69
2023/08/08 02:08:58;;;;;;;;;;;18.40;99.90;;;;;;5115607;28;19912;-70
2023/08/08 02:11:25;;;;;;;;;;;18.40;99.90;;;;;;5110429;28;19915;-72
2023/08/08 02:13:51;;;;;;;;;;;18.40;99.90;;;;;;5114794;28;19908;-69
2023/08/08 02:16:18;;;;;;;;;;;18.40;99.90;;;;;;5103391;28;19934;-71
2023/08/08 02:18:45;;;;;;;;;;;18.50;99.90;;;;;;5107197;28;19951;-71
2023/08/08 02:21:11;;;;;;;;;;;18.70;99.90;;;;;;5115621;28;20368;-70
2023/08/08 02:23:38;;;;;;;;;;;18.80;99.90;;;;;;5086603;28;20011;-69
2023/08/08 02:26:05;;;;;;;;;;;18.90;99.90;;;;;;5095415;28;19912;-72
2023/08/08 02:28:31;;;;;;;;;;;19.10;99.90;;;;;;5095333;28;19916;-69
2023/08/08 02:30:58;;;;;;;;;;;19.30;99.90;;;;;;5094779;28;19912;-70
2023/08/08 02:33:24;;;;;;;;;;;19.50;99.90;;;;;;5101875;28;19907;-70
2023/08/08 02:35:51;;;;;;;;;;;19.70;99.90;;;;;;5114846;28;19919;-70
2023/08/08 02:38:18;;;;;;;;;;;20.10;99.90;;;;;;5115634;28;19915;-70
2023/08/08 02:40:44;;;;;;;;;;;20.30;99.90;;;;;;5115593;28;20280;-71
2023/08/08 02:43:11;;;;;;;;;;;20.40;99.90;;;;;;5081970;28;19916;-70
2023/08/08 02:45:38;;;;;;;;;;;20.40;99.90;;;;;;5094472;28;19916;-69
2023/08/08 02:48:05;;;;;;;;;;;20.50;99.80;;;;;;5094606;28;20432;-69
2023/08/08 02:50:31;;;;;;;;;;;20.50;99.90;;;;;;5106958;28;19923;-70
2023/08/08 02:52:58;;;;;;;;;;;20.80;99.70;;;;;;5110159;28;20300;-70
2023/08/08 02:55:24;;;;;;;;;;;20.90;99.50;;;;;;5092977;28;19915;-70
2023/08/08 02:57:51;;;;;;;;;;;21.00;99.90;;;;;;5098590;28;20308;-71
2023/08/08 03:00:18;;;;;;;;;;;21.10;99.50;;;;;;5114158;28;19908;-71
2023/08/08 03:02:44;;;;;;;;;;;21.50;99.60;;;;;;5094093;28;19966;-71
2023/08/08 03:05:11;;;;;;;;;;;22.00;98.30;;;;;;5094047;28;19908;-71
2023/08/08 03:07:37;;;;;;;;;;;22.50;98.00;;;;;;5098023;28;20291;-70
2023/08/08 03:10:04;;;;;;;;;;;22.80;96.50;;;;;;5112572;28;19908;-70
2023/08/08 03:12:31;;;;;;;;;;;22.40;96.20;;;;;;5107824;28;19967;-70
2023/08/08 03:14:58;;;;;;;;;;;22.40;97.10;;;;;;5111917;28;19908;-70
2023/08/08 03:17:24;;;;;;;;;;;22.30;96.90;;;;;;5112843;28;19908;-69
2023/08/08 03:19:51;;;;;;;;;;;22.50;96.80;;;;;;5112438;28;19912;-71
2023/08/08 03:22:18;;;;;;;;;;;22.90;96.50;;;;;;5112834;28;19908;-72
2023/08/08 03:24:44;;;;;;;;;;;24.00;95.50;;;;;;5094018;28;19908;-72
2023/08/08 03:27:11;;;;;;;;;;;25.00;92.40;;;;;;5109556;28;19924;-68
2023/08/08 03:29:37;;;;;;;;;;;25.90;90.70;;;;;;5095312;28;19962;-68
2023/08/08 03:32:04;;;;;;;;;;;26.70;89.00;;;;;;5093754;28;19912;-69
2023/08/08 03:34:31;;;;;;;;;;;27.50;87.30;;;;;;5092871;28;20133;-71
2023/08/08 03:36:58;;;;;;;;;;;28.50;84.40;;;;;;5109546;28;19951;-70
2023/08/08 03:39:24;;;;;;;;;;;28.70;82.80;;;;;;5114495;28;19950;-68
2023/08/08 03:41:51;;;;;;;;;;;29.40;81.00;;;;;;5113788;28;19911;-70
2023/08/08 03:44:17;;;;;;;;;;;29.80;80.30;;;;;;5113151;28;19931;-68
2023/08/08 03:46:44;;;;;;;;;;;30.30;77.20;;;;;;5113701;28;19926;-68
2023/08/08 03:49:11;;;;;;;;;;;30.00;76.60;;;;;;5114279;28;20261;-68
2023/08/08 03:51:37;;;;;;;;;;;30.30;75.30;;;;;;5113863;28;19938;-68
2023/08/08 03:54:04;;;;;;;;;;;30.50;74.70;;;;;;5113146;28;19914;-70
2023/08/08 03:56:31;;;;;;;;;;;30.90;73.90;;;;;;5113302;28;20006;-71
2023/08/08 03:58:58;;;;;;;;;;;31.20;72.60;;;;;;5112804;28;19920;-73
2023/08/08 04:01:24;;;;;;;;;;;31.40;71.20;;;;;;5113477;28;20429;-68
2023/08/08 04:03:51;;;;;;;;;;;31.10;70.10;;;;;;5112848;28;19920;-71
2023/08/08 04:06:18;;;;;;;;;;;31.00;72.10;;;;;;5113092;28;19912;-69
2023/08/08 04:08:44;;;;;;;;;;;31.20;71.50;;;;;;5113207;28;19957;-70
2023/08/08 04:11:11;;;;;;;;;;;31.10;71.30;;;;;;5113625;28;19908;-70
2023/08/08 04:13:38;;;;;;;;;;;31.20;71.70;;;;;;5111742;28;19916;-73
2023/08/08 04:16:04;;;;;;;;;;;31.40;70.50;;;;;;5112497;28;19907;-73
2023/08/08 04:18:31;;;;;;;;;;;31.50;70.00;;;;;;5112895;28;19911;-69
2023/08/08 04:20:58;;;;;;;;;;;31.20;69.20;;;;;;5113699;28;19908;-70
2023/08/08 04:23:25;;;;;;;;;;;31.50;69.80;;;;;;5106267;28;19935;-71
2023/08/08 04:25:52;;;;;;;;;;;31.40;68.60;;;;;;5101445;28;19920;-70
2023/08/08 04:28:19;;;;;;;;;;;30.50;69.50;;;;;;5114875;28;19926;-73
2023/08/08 04:30:46;;;;;;;;;;;30.30;70.90;;;;;;5114451;28;20010;-79
2023/08/08 04:33:13;;;;;;;;;;;30.30;71.00;;;;;;5106737;28;20273;-71
2023/08/08 04:35:40;;;;;;;;;;;30.20;71.20;;;;;;5101581;28;19908;-70
2023/08/08 04:38:06;;;;;;;;;;;29.90;71.10;;;;;;5077544;28;19912;-74
2023/08/08 04:40:33;;;;;;;;;;;29.10;72.60;;;;;;5113044;28;19908;-73
2023/08/08 04:42:59;;;;;;;;;;;27.90;74.20;;;;;;5111345;28;19918;-73
2023/08/08 04:45:27;;;;;;;;;;;26.80;77.00;;;;;;5112263;28;19919;-72
2023/08/08 04:47:53;;;;;;;;;;;25.70;79.90;;;;;;5111620;28;20395;-72
2023/08/08 04:50:20;;;;;;;;;;;25.50;81.10;;;;;;5113160;28;19914;-73
2023/08/08 04:52:47;;;;;;;;;;;25.20;81.00;;;;;;5111148;28;20314;-74
2023/08/08 04:55:13;;;;;;;;;;;24.50;82.00;;;;;;5112159;28;19943;-72
2023/08/08 04:57:40;;;;;;;;;;;23.70;84.50;;;;;;5111975;28;19912;-70
2023/08/08 05:00:08;;;;;;;;;;;23.00;86.80;;;;;;5093639;28;19945;-71
2023/08/08 05:02:36;;;;;;;;;;;22.70;88.80;;;;;;5110446;28;19908;-71
2023/08/08 05:05:03;;;;;;;;;;;22.50;90.20;;;;;;5109987;28;19908;-72
2023/08/08 05:07:29;;;;;;;;;;;22.40;90.00;;;;;;5112047;28;19923;-70
2023/08/08 05:09:56;;;;;;;;;;;22.00;90.70;;;;;;5108445;28;19922;-72
2023/08/08 05:12:23;;;;;;;;;;;21.90;91.50;;;;;;5109771;28;20364;-72
2023/08/08 05:14:49;;;;;;;;;;;21.90;91.40;;;;;;5096330;27;20395;-71
2023/08/08 05:17:16;;;;;;;;;;;22.00;91.50;;;;;;5108595;28;19915;-72
2023/08/08 05:19:43;;;;;;;;;;;22.60;90.90;;;;;;5107096;28;19920;-71
2023/08/08 05:22:09;;;;;;;;;;;23.20;90.20;;;;;;5108720;28;19919;-70
2023/08/08 05:24:36;;;;;;;;;;;24.10;88.20;;;;;;5111068;28;19964;-71
2023/08/08 05:27:03;;;;;;;;;;;24.70;84.70;;;;;;5110118;28;19915;-71
2023/08/08 05:29:30;;;;;;;;;;;25.50;82.80;;;;;;5107413;28;20293;-69
2023/08/08 05:31:56;;;;;;;;;;;25.70;82.20;;;;;;5106827;28;20289;-71
2023/08/08 05:34:26;;;;;;;;;;;25.80;81.40;;;;;;5110135;28;19908;-69
2023/08/08 05:36:52;;;;;;;;;;;25.40;82.70;;;;;;5111556;28;19911;-73
2023/08/08 05:39:19;;;;;;;;;;;25.10;85.30;;;;;;5108992;28;19939;-71
2023/08/08 05:41:46;;;;;;;;;;;24.70;83.90;;;;;;5095139;28;19924;-71
2023/08/08 05:44:12;;;;;;;;;;;24.00;85.80;;;;;;5102584;28;19924;-71
2023/08/08 05:46:39;;;;;;;;;;;23.30;88.20;;;;;;5110699;28;20341;-71
2023/08/08 05:49:06;;;;;;;;;;;23.00;89.30;;;;;;5108938;28;19915;-71
2023/08/08 05:51:33;;;;;;;;;;;22.90;90.60;;;;;;5110660;28;19908;-70
2023/08/08 05:53:59;;;;;;;;;;;23.20;90.20;;;;;;5109763;28;20394;-72
2023/08/08 05:56:28;;;;;;;;;;;23.20;88.70;;;;;;5111335;28;19915;-72
2023/08/08 05:58:55;;;;;;;;;;;22.90;90.30;;;;;;5110543;28;19911;-70
2023/08/08 06:01:21;;;;;;;;;;;22.90;90.20;;;;;;5111243;28;19950;-71
2023/08/08 06:03:48;;;;;;;;;;;22.80;90.30;;;;;;5104600;28;19915;-72
2023/08/08 06:06:14;;;;;;;;;;;22.70;90.10;;;;;;5110421;28;19919;-71
2023/08/08 06:08:41;;;;;;;;;;;22.90;88.60;;;;;;5109810;28;19916;-70
2023/08/08 06:11:08;;;;;;;;;;;23.10;88.60;;;;;;5108911;28;19918;-69
2023/08/08 06:13:34;;;;;;;;;;;23.90;87.50;;;;;;5089989;28;19963;-71
2023/08/08 06:16:03;;;;;;;;;;;24.80;86.70;;;;;;5093799;28;19908;-71
2023/08/08 06:18:30;;;;;;;;;;;25.80;85.10;;;;;;5092409;28;19908;-71
2023/08/08 06:20:58;;;;;;;;;;;26.40;83.60;;;;;;5111587;28;20010;-72
2023/08/08 06:23:24;;;;;;;;;;;26.80;82.80;;;;;;5102400;28;19923;-70
2023/08/08 06:25:51;;;;;;;;;;;27.20;80.70;;;;;;5109453;28;20396;-72
2023/08/08 06:28:18;;;;;;;;;;;27.40;79.80;;;;;;5092467;28;19920;-69
2023/08/08 06:30:44;;;;;;;;;;;26.70;80.80;;;;;;5110857;28;19916;-69
2023/08/08 06:33:11;;;;;;;;;;;25.90;82.30;;;;;;5103731;28;19919;-68
2023/08/08 06:35:38;;;;;;;;;;;25.10;83.20;;;;;;5110361;28;19912;-72
2023/08/08 06:38:04;;;;;;;;;;;23.90;86.10;;;;;;5111592;28;20017;-72
2023/08/08 06:40:31;;;;;;;;;;;22.90;89.00;;;;;;5113957;28;19907;-72
2023/08/08 06:42:58;;;;;;;;;;;21.90;90.70;;;;;;5108672;28;19911;-73
2023/08/08 06:45:25;;;;;;;;;;;21.40;91.80;;;;;;5095138;28;20065;-69
2023/08/08 06:47:51;;;;;;;;;;;20.80;92.70;;;;;;5114410;28;19953;-71
2023/08/08 06:50:18;;;;;;;;;;;20.30;93.30;;;;;;5114118;28;19907;-72
2023/08/08 06:52:45;;;;;;;;;;;19.80;94.40;;;;;;5105927;27;19912;-71
2023/08/08 06:55:11;;;;;;;;;;;19.30;95.30;;;;;;5108095;28;19918;-72
2023/08/08 06:57:38;;;;;;;;;;;19.00;96.40;;;;;;5113286;27;19912;-73
2023/08/08 07:00:05;;;;;;;;;;;18.80;97.10;;;;;;5112825;28;19915;-71
2023/08/08 07:02:32;;;;;;;;;;;18.50;97.70;;;;;;5110416;28;20016;-71
2023/08/08 07:04:59;;;;;;;;;;;18.30;98.70;;;;;;5111401;28;20253;-71
2023/08/08 07:07:25;;;;;;;;;;;18.00;99.00;;;;;;5108250;28;19942;-72
2023/08/08 07:09:52;;;;;;;;;;;17.90;99.70;;;;;;5114388;28;20347;-70
2023/08/08 07:12:18;;;;;;;;;;;17.80;99.90;;;;;;5113142;27;20007;-70
2023/08/08 07:14:45;;;;;;;;;;;17.70;99.90;;;;;;5094298;28;19943;-69
2023/08/08 07:17:12;;;;;;;;;;;17.50;99.90;;;;;;5111407;28;20412;-70
2023/08/08 07:19:38;;;;;;;;;;;17.40;99.90;;;;;;5113572;28;19951;-70
2023/08/08 07:22:05;;;;;;;;;;;17.40;99.90;;;;;;5096304;28;19912;-69
2023/08/08 07:24:32;;;;;;;;;;;17.20;99.90;;;;;;5114241;28;19914;-67
2023/08/08 07:26:59;;;;;;;;;;;17.10;99.90;;;;;;5113607;28;19945;-69
2023/08/08 07:29:25;;;;;;;;;;;17.00;99.90;;;;;;5114272;28;20281;-69
2023/08/08 07:31:53;;;;;;;;;;;16.90;99.90;;;;;;5114126;28;20418;-70
2023/08/08 07:34:20;;;;;;;;;;;16.80;99.90;;;;;;5096100;28;20269;-69
2023/08/08 07:36:47;;;;;;;;;;;16.70;99.90;;;;;;5107025;28;19972;-69
2023/08/08 07:39:14;;;;;;;;;;;16.60;99.90;;;;;;5113421;28;19955;-68
2023/08/08 07:41:41;;;;;;;;;;;16.60;99.90;;;;;;5105511;28;19919;-69
2023/08/08 07:44:08;;;;;;;;;;;16.40;99.90;;;;;;5097049;28;20011;-69
2023/08/08 07:46:34;;;;;;;;;;;16.40;99.90;;;;;;5104646;27;20425;-69
2023/08/08 07:49:03;;;;;;;;;;;16.30;99.90;;;;;;5113576;28;19916;-71
2023/08/08 07:51:30;;;;;;;;;;;16.30;99.90;;;;;;5113028;27;20477;-69
2023/08/08 07:53:57;;;;;;;;;;;16.30;99.90;;;;;;5113660;28;20276;-70
2023/08/08 07:56:24;;;;;;;;;;;16.30;99.90;;;;;;5114113;28;20000;-70
2023/08/08 07:58:50;;;;;;;;;;;16.20;99.90;;;;;;5113501;28;20383;-70
2023/08/08 08:01:17;;;;;;;;;;;16.20;99.90;;;;;;5095908;28;20628;-71
2023/08/08 08:03:44;;;;;;;;;;;16.20;99.90;;;;;;5113834;28;19907;-69
2023/08/08 08:06:11;;;;;;;;;;;16.10;99.90;;;;;;5114293;28;19994;-70
2023/08/08 08:08:38;;;;;;;;;;;16.00;99.90;;;;;;5082415;28;19927;-69
2023/08/08 08:11:04;;;;;;;;;;;16.00;99.90;;;;;;5093230;28;20387;-69
2023/08/08 08:13:31;;;;;;;;;;;16.00;99.90;;;;;;5092767;28;20535;-70
2023/08/08 08:15:58;;;;;;;;;;;15.90;99.90;;;;;;5099626;28;19955;-70
2023/08/08 08:18:25;;;;;;;;;;;15.80;99.90;;;;;;5113302;28;19908;-71
2023/08/08 08:20:51;;;;;;;;;;;15.80;99.90;;;;;;5113276;28;19930;-71
2023/08/08 08:23:18;;;;;;;;;;;15.80;99.90;;;;;;5112837;28;19908;-70
2023/08/08 08:25:45;;;;;;;;;;;15.70;99.90;;;;;;5113791;28;19915;-69
2023/08/08 08:28:11;;;;;;;;;;;15.70;99.90;;;;;;5113576;28;19916;-70
2023/08/08 08:30:38;;;;;;;;;;;15.60;99.90;;;;;;5113452;28;19908;-70
2023/08/08 08:33:07;;;;;;;;;;;15.60;99.90;;;;;;5113195;28;19998;-69
2023/08/08 08:35:37;;;;;;;;;;;15.60;99.90;;;;;;5113611;28;19907;-69
2023/08/08 08:38:04;;;;;;;;;;;15.50;99.90;;;;;;5111458;28;19911;-69
2023/08/08 08:40:33;;;;;;;;;;;15.50;99.90;;;;;;5111530;28;19912;-69
2023/08/08 08:43:01;;;;;;;;;;;15.50;99.90;;;;;;5113584;28;20342;-70
2023/08/08 08:45:28;;;;;;;;;;;15.40;99.90;;;;;;5109788;28;19920;-73
2023/08/08 08:47:56;;;;;;;;;;;15.40;99.90;;;;;;5111290;28;19924;-71
2023/08/08 08:50:23;;;;;;;;;;;15.40;99.90;;;;;;5113061;28;19953;-72
2023/08/08 08:52:55;;;;;;;;;;;15.40;99.90;;;;;;5094172;28;21393;-72
2023/08/08 08:55:22;;;;;;;;;;;15.40;99.90;;;;;;5092774;28;20765;-72
2023/08/08 08:57:50;;;;;;;;;;;15.30;99.90;;;;;;5092430;28;19912;-73
2023/08/08 09:00:17;;;;;;;;;;;15.30;99.90;;;;;;5093137;28;19908;-72
2023/08/08 09:02:44;;;;;;;;;;;15.30;99.90;;;;;;5101902;28;19915;-71
2023/08/08 09:05:12;;;;;;;;;;;15.30;99.90;;;;;;5110928;28;19961;-72
2023/08/08 09:07:39;;;;;;;;;;;15.20;99.90;;;;;;5107272;28;19935;-71
2023/08/08 09:10:06;;;;;;;;;;;15.20;99.90;;;;;;5111498;28;20003;-70
2023/08/08 09:12:34;;;;;;;;;;;15.20;99.90;;;;;;5111692;28;19908;-72
2023/08/08 09:15:04;;;;;;;;;;;15.20;99.90;;;;;;5111755;28;20276;-71
2023/08/08 09:17:31;;;;;;;;;;;15.10;99.90;;;;;;5109599;28;19926;-72
2023/08/08 09:20:00;;;;;;;;;;;15.10;99.90;;;;;;5111510;28;19931;-71
2023/08/08 09:22:28;;;;;;;;;;;15.10;99.90;;;;;;5108717;28;19907;-71
2023/08/08 09:24:55;;;;;;;;;;;15.00;99.90;;;;;;5106644;28;19919;-71
2023/08/08 09:27:22;;;;;;;;;;;15.00;99.90;;;;;;5106094;28;19971;-73
2023/08/08 09:29:49;;;;;;;;;;;15.00;99.90;;;;;;5109892;28;19919;-71
2023/08/08 09:32:17;;;;;;;;;;;14.90;99.90;;;;;;5113307;28;19930;-70
2023/08/08 09:34:45;;;;;;;;;;;15.00;99.90;;;;;;5112199;28;19918;-70
2023/08/08 09:37:13;;;;;;;;;;;15.00;99.90;;;;;;5111715;28;19916;-71
2023/08/08 09:39:40;;;;;;;;;;;15.00;99.90;;;;;;5090979;28;20410;-72
2023/08/08 09:42:08;;;;;;;;;;;15.00;99.90;;;;;;5109220;28;19912;-71
2023/08/08 09:44:35;;;;;;;;;;;14.90;99.90;;;;;;5105322;28;19936;-72
2023/08/08 09:47:01;;;;;;;;;;;14.90;99.90;;;;;;5111527;28;19919;-73
2023/08/08 09:49:29;;;;;;;;;;;14.90;99.90;;;;;;5107957;28;19908;-70
2023/08/08 09:51:55;;;;;;;;;;;14.80;99.90;;;;;;5112127;28;19943;-70
2023/08/08 09:54:22;;;;;;;;;;;14.80;99.90;;;;;;5111952;28;19968;-70
2023/08/08 09:56:50;;;;;;;;;;;14.80;99.90;;;;;;5110905;28;20426;-72
2023/08/08 09:59:18;;;;;;;;;;;14.70;99.90;;;;;;5106068;28;20317;-71
2023/08/08 10:01:45;;;;;;;;;;;14.70;99.90;;;;;;5111283;28;19915;-69
2023/08/08 10:04:13;;;;;;;;;;;14.60;99.90;;;;;;5110829;28;20020;-70
2023/08/08 10:06:39;;;;;;;;;;;14.70;99.90;;;;;;5110607;28;19975;-72
2023/08/08 10:09:07;;;;;;;;;;;14.60;99.90;;;;;;5106927;28;20007;-71
2023/08/08 10:11:34;;;;;;;;;;;14.60;99.90;;;;;;5110543;28;20010;-71
2023/08/08 10:14:02;;;;;;;;;;;14.60;99.90;;;;;;5113292;28;19954;-72
2023/08/08 10:16:31;;;;;;;;;;;14.50;99.90;;;;;;5113443;28;20126;-70
2023/08/08 10:19:03;;;;;;;;;;;14.50;99.90;;;;;;5116763;28;20343;-71
2023/08/08 10:21:34;;;;;;;;;;;14.50;99.90;;;;;;5116441;28;20314;-71
2023/08/08 10:24:04;;;;;;;;;;;14.50;99.90;;;;;;5115927;28;19908;-71
2023/08/08 10:26:31;;;;;;;;;;;14.40;99.90;;;;;;5085970;28;20349;-71
2023/08/08 10:28:59;;;;;;;;;;;14.40;99.90;;;;;;5095494;28;19972;-73
2023/08/08 10:31:26;;;;;;;;;;;14.40;99.90;;;;;;5095645;28;19912;-69
2023/08/08 10:34:06;;;;;;;;;;;14.40;99.90;;;;;;5095383;28;19931;-70
2023/08/08 10:36:48;;;;;;;;;;;14.30;99.90;;;;;;5095695;28;20007;-72
2023/08/08 10:39:21;;;;;;;;;;;14.30;99.90;;;;;;5095539;28;19913;-71
2023/08/08 10:41:49;;;;;;;;;;;14.20;99.90;;;;;;5108260;28;19908;-71
2023/08/08 10:44:23;;;;;;;;;;;14.20;99.90;;;;;;5115572;28;19919;-72
2023/08/08 10:46:50;;;;;;;;;;;14.20;99.90;;;;;;5099581;28;20439;-71
2023/08/08 10:49:17;;;;;;;;;;;14.10;99.90;;;;;;5095287;28;19912;-71
2023/08/08 10:51:46;;;;;;;;;;;14.20;99.90;;;;;;5101741;28;19908;-70
2023/08/08 10:54:14;;;;;;;;;;;14.10;99.90;;;;;;5115622;28;19912;-71
2023/08/08 10:56:41;;;;;;;;;;;14.10;99.90;;;;;;5115460;28;19919;-72
2023/08/08 10:59:18;;;;;;;;;;;14.10;99.90;;;;;;5115930;28;19908;-70
2023/08/08 11:01:48;;;;;;;;;;;14.10;99.90;;;;;;5115557;28;19907;-73
2023/08/08 11:04:16;;;;;;;;;;;14.00;99.90;;;;;;5113891;28;20615;-71
2023/08/08 11:06:42;;;;;;;;;;;14.00;99.90;;;;;;5114188;28;19930;-72
2023/08/08 11:09:09;;;;;;;;;;;14.00;99.90;;;;;;5114069;28;19926;-71
2023/08/08 11:11:37;;;;;;;;;;;13.90;99.90;;;;;;5114166;28;20348;-72
2023/08/08 11:14:10;;;;;;;;;;;13.90;99.90;;;;;;5113906;28;20368;-73
2023/08/08 11:16:37;;;;;;;;;;;13.90;99.90;;;;;;5109245;28;19916;-71
2023/08/08 11:19:04;;;;;;;;;;;13.90;99.90;;;;;;5095433;28;20296;-72
2023/08/08 11:21:33;;;;;;;;;;;13.80;99.90;;;;;;5113305;28;20383;-71
2023/08/08 11:24:00;;;;;;;;;;;13.80;99.90;;;;;;5112885;28;19914;-73
2023/08/08 11:26:27;;;;;;;;;;;13.80;99.90;;;;;;5112586;28;19919;-73
2023/08/08 11:28:53;;;;;;;;;;;13.70;99.90;;;;;;5113136;28;19923;-70
2023/08/08 11:31:21;;;;;;;;;;;13.70;99.90;;;;;;5111811;28;19916;-73
2023/08/08 11:33:49;;;;;;;;;;;13.70;99.90;;;;;;5113053;28;19919;-71
2023/08/08 11:36:15;;;;;;;;;;;13.70;99.90;;;;;;5092399;28;19916;-73
2023/08/08 11:38:43;;;;;;;;;;;13.70;99.90;;;;;;5110692;28;19916;-72
2023/08/08 11:41:10;;;;;;;;;;;13.60;99.90;;;;;;5112916;28;19919;-71
2023/08/08 11:43:41;;;;;;;;;;;13.70;99.90;;;;;;5112610;28;19938;-72
2023/08/08 11:46:14;;;;;;;;;;;13.60;99.90;;;;;;5112430;28;19946;-72
2023/08/08 11:48:40;;;;;;;;;;;13.60;99.90;;;;;;5112305;28;19926;-72
2023/08/08 11:51:09;;;;;;;;;;;13.60;99.90;;;;;;5112999;28;20007;-72
2023/08/08 11:53:36;;;;;;;;;;;13.60;99.90;;;;;;5113138;28;19907;-70
2023/08/08 11:56:03;;;;;;;;;;;13.50;99.90;;;;;;5110469;28;19908;-71
2023/08/08 11:58:30;;;;;;;;;;;13.50;99.90;;;;;;5113168;28;19944;-69
2023/08/08 12:00:57;;;;;;;;;;;13.40;99.90;;;;;;5108865;28;19943;-70
2023/08/08 12:03:25;;;;;;;;;;;13.40;99.90;;;;;;5110912;28;19964;-73
2023/08/08 12:05:52;;;;;;;;;;;13.40;99.90;;;;;;5109934;28;19908;-68
2023/08/08 12:08:23;;;;;;;;;;;13.40;99.90;;;;;;5111518;28;19915;-72
2023/08/08 12:10:56;;;;;;;;;;;13.40;99.90;;;;;;5112751;28;20384;-73
2023/08/08 12:13:26;;;;;;;;;;;13.30;99.90;;;;;;5111021;28;19912;-71
2023/08/08 12:15:53;;;;;;;;;;;13.30;99.90;;;;;;5109866;28;20035;-70
2023/08/08 12:18:20;;;;;;;;;;;13.30;99.90;;;;;;5112568;28;20360;-72
2023/08/08 12:20:47;;;;;;;;;;;13.20;99.90;;;;;;5111216;28;19916;-73
2023/08/08 12:23:14;;;;;;;;;;;13.20;99.90;;;;;;5112764;28;19922;-69
2023/08/08 12:25:42;;;;;;;;;;;13.10;99.90;;;;;;5112439;28;19960;-72
2023/08/08 12:28:09;;;;;;;;;;;13.10;99.90;;;;;;5109773;28;19950;-71
2023/08/08 12:30:35;;;;;;;;;;;13.10;99.90;;;;;;5112270;28;19955;-70
2023/08/08 12:33:02;;;;;;;;;;;13.00;99.90;;;;;;5112270;28;19912;-72
2023/08/08 12:35:29;;;;;;;;;;;13.00;99.90;;;;;;5110270;28;19958;-73
2023/08/08 12:37:55;;;;;;;;;;;13.00;99.90;;;;;;5112495;28;19912;-72
2023/08/08 12:40:22;;;;;;;;;;;12.90;99.90;;;;;;5111129;28;20243;-71
2023/08/08 12:42:49;;;;;;;;;;;13.00;99.90;;;;;;5110542;28;20276;-74
2023/08/08 12:45:17;;;;;;;;;;;12.90;99.90;;;;;;5111540;28;19920;-70
2023/08/08 12:47:44;;;;;;;;;;;12.90;99.90;;;;;;5111439;28;20069;-70
2023/08/08 12:50:11;;;;;;;;;;;12.80;99.90;;;;;;5111457;28;19912;-73
2023/08/08 12:52:38;;;;;;;;;;;12.80;99.90;;;;;;5111859;28;20375;-70
2023/08/08 12:55:05;;;;;;;;;;;12.80;99.90;;;;;;5111550;28;19912;-69
2023/08/08 12:57:32;;;;;;;;;;;12.70;99.90;;;;;;5113312;28;19908;-71
2023/08/08 12:59:58;;;;;;;;;;;12.70;99.90;;;;;;5095206;28;20342;-72
2023/08/08 13:02:25;;;;;;;;;;;12.60;99.90;;;;;;5113317;28;19947;-71
2023/08/08 13:04:52;;;;;;;;;;;12.70;99.90;;;;;;5110818;28;19908;-71
2023/08/08 13:07:18;;;;;;;;;;;12.60;99.90;;;;;;5092513;28;19953;-71
2023/08/08 13:09:45;;;;;;;;;;;12.60;99.90;;;;;;5092705;28;19919;-70
2023/08/08 13:12:11;;;;;;;;;;;12.50;99.90;;;;;;5092888;28;20011;-71
2023/08/08 13:14:38;;;;;;;;;;;12.50;99.90;;;;;;5102055;28;19920;-71
2023/08/08 13:17:05;;;;;;;;;;;12.50;99.90;;;;;;5106936;28;19912;-71
2023/08/08 13:19:31;;;;;;;;;;;12.40;99.90;;;;;;5095575;28;20007;-72
2023/08/08 13:21:58;;;;;;;;;;;12.40;99.90;;;;;;5100838;28;19912;-71
2023/08/08 13:24:25;;;;;;;;;;;12.50;99.90;;;;;;5113248;28;19912;-71
2023/08/08 13:26:52;;;;;;;;;;;12.40;99.90;;;;;;5112404;28;19908;-74
2023/08/08 13:29:18;;;;;;;;;;;12.40;99.90;;;;;;5112614;28;19955;-73
2023/08/08 13:31:45;;;;;;;;;;;12.30;99.90;;;;;;5112905;28;19943;-74
2023/08/08 13:34:11;;;;;;;;;;;12.30;99.90;;;;;;5112687;28;20376;-73
2023/08/08 13:36:38;;;;;;;;;;;12.20;99.90;;;;;;5093687;28;19946;-73
2023/08/08 13:39:05;;;;;;;;;;;12.20;99.90;;;;;;5092430;28;19908;-73
2023/08/08 13:41:32;;;;;;;;;;;12.20;99.90;;;;;;5092542;28;20403;-73
2023/08/08 13:43:58;;;;;;;;;;;12.20;99.90;;;;;;5092514;28;19927;-70
2023/08/08 13:46:25;;;;;;;;;;;12.10;99.90;;;;;;5092013;28;19908;-72
2023/08/08 13:48:52;;;;;;;;;;;12.00;99.90;;;;;;5114065;28;20313;-72
2023/08/08 13:51:19;;;;;;;;;;;12.10;99.90;;;;;;5116569;28;19922;-72
2023/08/08 13:53:45;;;;;;;;;;;12.00;99.90;;;;;;5116831;28;19915;-72
2023/08/08 13:56:12;;;;;;;;;;;12.00;99.90;;;;;;5115925;28;20406;-72
2023/08/08 13:58:38;;;;;;;;;;;12.00;99.90;;;;;;5116735;28;19908;-73
2023/08/08 14:01:05;;;;;;;;;;;12.00;99.90;;;;;;5116757;28;20436;-71
2023/08/08 14:03:32;;;;;;;;;;;12.00;99.90;;;;;;5115097;28;19911;-72
2023/08/08 14:05:59;;;;;;;;;;;11.90;99.90;;;;;;5116294;28;20364;-73
2023/08/08 14:08:25;;;;;;;;;;;11.90;99.90;;;;;;5116740;28;20380;-72
2023/08/08 14:10:52;;;;;;;;;;;11.80;99.90;;;;;;5116505;28;19908;-73
2023/08/08 14:13:19;;;;;;;;;;;11.80;99.90;;;;;;5116614;28;19915;-73
2023/08/08 14:15:45;;;;;;;;;;;11.80;99.90;;;;;;5105504;28;20026;-72